Saint Marys, Illinois
Current Conditions -  °F | °C
As of 1:55 PM on Sunday 23 Nov 2014 (Local Time) from K1H2 Reporting Station
Overcast Overcast  
Wind Chill: 51°   Ceiling: 900
Heat Index: 51°   Visibility: NA
Dew Point: 48°   Wind: 14mph
Humidity: 89%   Direction: 130°SE
Pressure: 29.5"   Gusts: 20mph
Location:  39.1183°N, 88.6059°W
Report Text: K1H2 231955Z AUTO 13012G17KT BKN009 OVC015 11/09 A2950 RMK AO2 P0002 T01070090 PWINO
Loading
Personal Weather Stations






























Interactive Weather Map New forecast layout! Learn more

10-Day Weather Forecast

Advertisements
Track Severe Weather on mobile